createdAt,value
2018-09-13T00:01:25.790Z,98.30
2018-09-13T00:03:27.934Z,98.30
2018-09-13T00:05:30.153Z,98.30
2018-09-13T00:07:39.271Z,98.30
2018-09-13T00:09:41.448Z,98.30
2018-09-13T00:11:44.094Z,98.30
2018-09-13T00:13:46.475Z,98.30
2018-09-13T00:15:48.842Z,98.30
2018-09-13T00:17:51.191Z,98.30
2018-09-13T00:19:53.387Z,98.30
2018-09-13T00:21:55.606Z,98.30
2018-09-13T00:23:58.028Z,98.30
2018-09-13T00:26:00.168Z,98.30
2018-09-13T00:28:02.373Z,98.30
2018-09-13T00:30:04.609Z,98.30
2018-09-13T00:32:06.802Z,98.30
2018-09-13T00:34:08.943Z,98.30
2018-09-13T00:36:11.085Z,98.30
2018-09-13T00:38:13.209Z,98.30
2018-09-13T00:40:15.380Z,98.30
2018-09-13T00:42:17.544Z,98.30
2018-09-13T00:44:19.794Z,98.30
2018-09-13T00:46:21.963Z,98.30
2018-09-13T00:48:24.102Z,98.30
2018-09-13T00:50:26.258Z,98.30
2018-09-13T00:52:28.512Z,98.30
2018-09-13T00:54:30.619Z,98.30
2018-09-13T01:15:58.342Z,98.30
2018-09-13T01:18:00.698Z,98.30
2018-09-13T01:20:02.906Z,98.30
2018-09-13T01:22:05.261Z,98.30
2018-09-13T01:24:07.727Z,98.30
2018-09-13T01:26:09.898Z,98.30
2018-09-13T01:28:12.051Z,98.30
2018-09-13T01:30:14.450Z,98.30
2018-09-13T01:32:16.590Z,98.30
2018-09-13T01:34:18.727Z,98.30
2018-09-13T01:36:20.890Z,98.30
2018-09-13T01:38:23.087Z,98.30
2018-09-13T01:40:25.232Z,98.30
2018-09-13T01:42:27.892Z,98.30
2018-09-13T01:44:30.035Z,98.30
2018-09-13T01:46:32.144Z,98.30
2018-09-13T01:48:34.700Z,98.30
2018-09-13T01:50:36.862Z,98.30
2018-09-13T01:52:39.006Z,98.30
2018-09-13T01:54:41.142Z,98.30
2018-09-13T01:56:43.265Z,98.30
2018-09-13T01:58:45.443Z,98.30
2018-09-13T02:00:47.675Z,98.30
2018-09-13T02:02:49.861Z,98.30
2018-09-13T02:04:52.003Z,98.30
2018-09-13T02:06:54.154Z,98.30
2018-09-13T02:08:56.321Z,98.30
2018-09-13T02:10:58.484Z,98.30
2018-09-13T02:13:00.671Z,98.30
2018-09-13T02:15:02.846Z,98.30
2018-09-13T02:17:05.024Z,98.30
2018-09-13T02:19:07.195Z,98.30
2018-09-13T02:21:09.391Z,98.30
2018-09-13T02:23:11.597Z,98.30
2018-09-13T02:25:13.731Z,98.30
2018-09-13T02:27:15.902Z,98.30
2018-09-13T02:29:18.062Z,98.30
2018-09-13T02:31:20.303Z,98.30
2018-09-13T02:33:22.620Z,98.30
2018-09-13T02:35:24.780Z,98.30
2018-09-13T02:37:26.920Z,98.30
2018-09-13T02:39:29.099Z,98.30
2018-09-13T02:41:31.233Z,98.30
2018-09-13T02:45:59.117Z,98.30
2018-09-13T02:48:01.283Z,98.30
2018-09-13T02:50:03.501Z,98.30
2018-09-13T02:52:05.922Z,98.30
2018-09-13T02:54:08.050Z,98.30
2018-09-13T02:56:10.200Z,98.30
2018-09-13T02:58:12.359Z,98.30
2018-09-13T03:00:14.515Z,98.30
2018-09-13T03:02:16.656Z,98.30
2018-09-13T03:04:19.095Z,98.30
2018-09-13T03:06:21.251Z,98.30
2018-09-13T03:08:23.421Z,98.30
2018-09-13T03:10:25.586Z,98.30
2018-09-13T03:12:27.781Z,98.30
2018-09-13T03:14:29.972Z,98.30
2018-09-13T03:16:32.111Z,98.30
2018-09-13T03:18:34.286Z,98.30
2018-09-13T03:20:36.510Z,98.30
2018-09-13T03:22:38.844Z,98.30
2018-09-13T03:24:41.023Z,98.30
2018-09-13T03:26:43.199Z,98.30
2018-09-13T03:28:45.421Z,98.30
2018-09-13T03:30:47.601Z,98.30
2018-09-13T03:32:49.891Z,98.30
2018-09-13T03:34:52.290Z,98.30
2018-09-13T03:36:54.406Z,98.30
2018-09-13T03:38:56.541Z,98.30
2018-09-13T03:40:58.706Z,98.30
2018-09-13T03:43:00.842Z,98.30
2018-09-13T03:45:03.046Z,98.30
2018-09-13T03:47:05.581Z,98.30
2018-09-13T03:49:07.848Z,98.30
2018-09-13T03:51:10.048Z,98.30
2018-09-13T03:53:12.168Z,98.30
2018-09-13T03:55:14.347Z,98.30
2018-09-13T03:57:16.511Z,98.30
2018-09-13T03:59:18.679Z,98.30
2018-09-13T04:01:20.890Z,98.30
2018-09-13T04:03:23.259Z,98.30
2018-09-13T04:05:25.339Z,98.30
2018-09-13T04:07:27.535Z,98.30
2018-09-13T04:09:29.690Z,98.30
2018-09-13T04:11:31.858Z,98.30
2018-09-13T04:13:34.513Z,98.30
2018-09-13T04:15:36.664Z,98.30
2018-09-13T04:17:38.854Z,98.30
2018-09-13T04:19:42.791Z,98.30
2018-09-13T04:21:44.957Z,98.30
2018-09-13T04:23:47.094Z,98.30
2018-09-13T04:25:49.269Z,98.30
2018-09-13T04:27:51.385Z,98.30
2018-09-13T04:29:53.638Z,98.30
2018-09-13T04:31:56.214Z,98.30
2018-09-13T04:33:58.378Z,98.30
2018-09-13T04:36:00.552Z,98.30
2018-09-13T04:38:02.731Z,98.30
2018-09-13T04:40:04.917Z,98.30
2018-09-13T04:42:07.126Z,98.30
2018-09-13T04:44:09.714Z,98.30
2018-09-13T04:46:11.867Z,98.30
2018-09-13T04:48:14.162Z,98.30
2018-09-13T04:50:16.551Z,98.30
2018-09-13T04:52:18.731Z,98.30
2018-09-13T04:54:21.433Z,98.30
2018-09-13T04:56:24.021Z,98.30
2018-09-13T04:58:26.222Z,98.30
2018-09-13T05:00:28.375Z,98.30
2018-09-13T05:02:30.579Z,98.30
2018-09-13T05:04:32.766Z,98.30
2018-09-13T05:06:35.060Z,98.30
2018-09-13T05:08:37.303Z,98.30
2018-09-13T05:10:39.450Z,98.30
2018-09-13T05:12:41.612Z,98.30
2018-09-13T05:14:43.760Z,98.30
2018-09-13T05:16:45.921Z,98.30
2018-09-13T05:18:54.931Z,98.30
2018-09-13T05:20:57.067Z,98.30
2018-09-13T05:22:59.278Z,98.30
2018-09-13T05:25:01.454Z,98.30
2018-09-13T05:27:03.637Z,98.30
2018-09-13T05:29:05.980Z,98.30
2018-09-13T05:31:08.216Z,98.30
2018-09-13T05:33:10.442Z,98.30
2018-09-13T05:35:12.790Z,98.30
2018-09-13T05:37:21.676Z,98.30
2018-09-13T05:39:23.865Z,98.30
2018-09-13T05:41:26.027Z,98.30
2018-09-13T05:43:28.218Z,98.30
2018-09-13T05:45:30.410Z,98.30
2018-09-13T05:47:32.796Z,98.30
2018-09-13T05:49:34.972Z,98.30
2018-09-13T05:51:37.097Z,98.30
2018-09-13T05:53:39.246Z,98.30
2018-09-13T05:55:41.386Z,98.30
2018-09-13T05:57:43.533Z,98.30
2018-09-13T05:59:45.936Z,98.30
2018-09-13T06:01:48.081Z,98.30
2018-09-13T06:03:50.195Z,98.30
2018-09-13T06:05:52.367Z,98.30
2018-09-13T06:07:54.572Z,98.30
2018-09-13T06:09:56.731Z,98.30
2018-09-13T06:12:04.524Z,98.30
2018-09-13T06:14:06.646Z,98.30
2018-09-13T06:16:08.774Z,98.30
2018-09-13T06:18:10.926Z,98.30
2018-09-13T06:20:13.079Z,98.30
2018-09-13T06:22:15.266Z,98.30
2018-09-13T06:24:17.382Z,98.30
2018-09-13T06:26:19.486Z,98.30
2018-09-13T06:28:21.630Z,98.30
2018-09-13T06:30:23.767Z,98.30
2018-09-13T06:32:25.884Z,98.30
2018-09-13T06:34:28.058Z,98.30
2018-09-13T06:36:30.315Z,98.30
2018-09-13T06:38:32.390Z,98.30
2018-09-13T06:40:34.519Z,98.30
2018-09-13T06:42:36.654Z,98.30
2018-09-13T06:44:38.787Z,98.30
2018-09-13T06:46:40.917Z,98.30
2018-09-13T06:48:43.631Z,98.30
2018-09-13T06:50:45.702Z,98.30
2018-09-13T06:52:47.947Z,98.30
2018-09-13T06:54:50.467Z,98.30
2018-09-13T06:56:52.667Z,98.00
2018-09-13T06:58:54.820Z,98.00
2018-09-13T07:00:57.253Z,98.30
2018-09-13T07:02:59.479Z,97.50
2018-09-13T07:05:01.614Z,96.60
2018-09-13T07:07:04.280Z,95.60
2018-09-13T07:09:08.871Z,95.40
2018-09-13T07:11:10.982Z,95.60
2018-09-13T07:13:13.212Z,95.00
2018-09-13T07:15:15.363Z,95.10
2018-09-13T07:17:17.524Z,92.90
2018-09-13T07:19:19.666Z,93.10
2018-09-13T07:21:21.833Z,93.00
2018-09-13T07:23:24.242Z,92.30
2018-09-13T07:25:26.428Z,91.30
2018-09-13T07:27:28.579Z,90.60
2018-09-13T07:29:30.702Z,91.80
2018-09-13T07:31:33.501Z,92.60
2018-09-13T07:33:35.661Z,92.20
2018-09-13T07:35:37.778Z,88.00
2018-09-13T07:37:39.990Z,87.10
2018-09-13T07:39:42.162Z,86.40
2018-09-13T07:41:44.267Z,86.90
2018-09-13T07:43:46.488Z,86.40
2018-09-13T07:45:48.617Z,86.10
2018-09-13T07:47:50.766Z,86.40
2018-09-13T07:49:53.130Z,86.90
2018-09-13T07:51:55.062Z,86.90
2018-09-13T07:53:57.475Z,84.40
2018-09-13T07:55:59.614Z,84.00
2018-09-13T07:58:01.828Z,84.00
2018-09-13T08:00:04.170Z,84.40
2018-09-13T08:02:06.319Z,84.30
2018-09-13T08:04:08.497Z,83.60
2018-09-13T08:06:10.662Z,83.10
2018-09-13T08:08:12.878Z,82.20
2018-09-13T08:10:15.109Z,81.80
2018-09-13T08:12:18.212Z,80.50
2018-09-13T08:14:20.317Z,80.70
2018-09-13T08:16:22.602Z,81.40
2018-09-13T08:18:24.730Z,81.80
2018-09-13T08:20:26.868Z,81.70
2018-09-13T08:22:29.004Z,81.20
2018-09-13T08:24:31.149Z,80.20
2018-09-13T08:26:33.299Z,80.40
2018-09-13T08:28:35.448Z,79.40
2018-09-13T08:30:37.907Z,78.40
2018-09-13T08:32:40.048Z,77.70
2018-09-13T08:34:42.258Z,76.30
2018-09-13T08:36:44.510Z,77.30
2018-09-13T08:38:46.643Z,77.70
2018-09-13T08:40:48.971Z,76.90
2018-09-13T08:42:51.140Z,75.90
2018-09-13T08:44:53.278Z,76.40
2018-09-13T08:46:55.410Z,73.70
2018-09-13T08:48:57.574Z,73.80
2018-09-13T08:50:59.703Z,74.00
2018-09-13T08:53:01.875Z,74.10
2018-09-13T08:55:04.175Z,73.60
2018-09-13T08:57:06.294Z,74.40
2018-09-13T08:59:08.500Z,74.30
2018-09-13T09:01:10.780Z,75.10
2018-09-13T09:03:12.960Z,76.30
2018-09-13T09:05:15.096Z,76.40
2018-09-13T09:07:17.226Z,77.40
2018-09-13T09:09:19.407Z,78.10
2018-09-13T09:11:21.536Z,78.00
2018-09-13T09:13:23.955Z,77.30
2018-09-13T09:15:26.151Z,76.20
2018-09-13T09:17:28.330Z,76.30
2018-09-13T09:19:30.479Z,76.90
2018-09-13T09:21:32.625Z,77.70
2018-09-13T09:23:34.774Z,78.00
2018-09-13T09:25:37.306Z,76.40
2018-09-13T09:27:46.336Z,76.50
2018-09-13T09:29:48.542Z,77.10
2018-09-13T09:31:50.634Z,77.60
2018-09-13T09:33:52.817Z,76.60
2018-09-13T09:35:55.954Z,74.70
2018-09-13T09:37:58.137Z,73.40
2018-09-13T09:40:00.276Z,73.00
2018-09-13T09:42:03.143Z,72.30
2018-09-13T09:44:05.443Z,73.30
2018-09-13T09:46:07.563Z,73.10
2018-09-13T09:48:09.804Z,72.60
2018-09-13T09:50:11.907Z,70.20
2018-09-13T09:52:14.051Z,72.30
2018-09-13T09:54:16.149Z,72.60
2018-09-13T09:56:18.469Z,71.80
2018-09-13T09:58:20.526Z,72.90
2018-09-13T10:00:27.263Z,73.10
2018-09-13T10:02:29.549Z,72.60
2018-09-13T10:04:31.780Z,73.60
2018-09-13T10:06:33.866Z,71.90
2018-09-13T10:08:36.037Z,72.40
2018-09-13T10:10:38.235Z,73.00
2018-09-13T10:12:40.352Z,72.00
2018-09-13T10:14:47.130Z,71.30
2018-09-13T10:17:01.695Z,70.60
2018-09-13T10:19:09.606Z,69.00
2018-09-13T10:21:17.495Z,68.30
2018-09-13T10:23:25.386Z,66.50
2018-09-13T10:25:33.158Z,66.40
2018-09-13T10:27:40.989Z,66.30
2018-09-13T10:29:49.069Z,67.60
2018-09-13T10:31:56.797Z,68.00
2018-09-13T10:34:04.718Z,67.70
2018-09-13T10:36:12.642Z,68.40
2018-09-13T10:38:20.418Z,66.80
2018-09-13T10:40:28.388Z,66.30
2018-09-13T10:42:36.385Z,64.70
2018-09-13T10:44:44.438Z,65.10
2018-09-13T10:46:51.470Z,64.90
2018-09-13T10:48:59.509Z,65.20
2018-09-13T10:51:07.571Z,64.20
2018-09-13T10:53:17.825Z,63.60
2018-09-13T10:55:20.036Z,63.50
2018-09-13T10:57:28.016Z,63.80
2018-09-13T10:59:30.168Z,62.50
2018-09-13T11:01:32.332Z,62.00
2018-09-13T11:03:34.466Z,61.60
2018-09-13T11:05:36.677Z,62.60
2018-09-13T11:07:38.823Z,61.50
2018-09-13T11:09:40.987Z,61.10
2018-09-13T11:11:43.380Z,60.00
2018-09-13T11:13:51.337Z,61.70
2018-09-13T11:15:54.097Z,59.90
2018-09-13T11:17:56.282Z,58.90
2018-09-13T11:19:58.426Z,59.20
2018-09-13T11:22:00.598Z,59.10
2018-09-13T11:24:02.765Z,59.80
2018-09-13T11:26:04.976Z,62.20
2018-09-13T11:28:07.134Z,61.40
2018-09-13T11:30:09.339Z,62.30
2018-09-13T11:32:12.102Z,62.60
2018-09-13T11:34:14.224Z,63.70
2018-09-13T11:36:16.861Z,63.20
2018-09-13T11:38:19.002Z,62.90
2018-09-13T11:40:21.274Z,62.60
2018-09-13T11:42:23.349Z,66.50
2018-09-13T11:44:25.520Z,68.50
2018-09-13T11:46:27.692Z,67.90
2018-09-13T11:48:30.345Z,66.40
2018-09-13T11:50:32.482Z,67.10
2018-09-13T11:52:34.631Z,66.50
2018-09-13T11:54:36.751Z,64.30
2018-09-13T11:56:38.919Z,60.90
2018-09-13T11:58:41.259Z,62.70
2018-09-13T12:00:43.570Z,62.60
2018-09-13T12:02:45.690Z,60.70
2018-09-13T12:04:47.845Z,60.10
2018-09-13T12:06:49.977Z,56.30
2018-09-13T12:08:52.138Z,56.30
2018-09-13T12:10:54.283Z,56.00
2018-09-13T12:12:56.534Z,56.50
2018-09-13T12:14:58.691Z,56.10
2018-09-13T12:17:01.258Z,56.30
2018-09-13T12:19:03.927Z,58.80
2018-09-13T12:21:06.115Z,58.00
2018-09-13T12:23:08.290Z,58.40
2018-09-13T12:25:10.439Z,58.60
2018-09-13T12:27:12.590Z,58.50
2018-09-13T12:29:14.739Z,58.30
2018-09-13T12:31:16.987Z,57.60
2018-09-13T12:33:19.162Z,56.20
2018-09-13T12:35:21.377Z,53.20
2018-09-13T12:37:23.543Z,51.20
2018-09-13T12:39:25.854Z,51.30
2018-09-13T12:41:28.024Z,50.70
2018-09-13T12:43:30.163Z,49.30
2018-09-13T12:45:32.294Z,48.60
2018-09-13T12:47:34.394Z,50.20
2018-09-13T12:49:36.546Z,50.90
2018-09-13T12:51:39.055Z,48.40
2018-09-13T12:53:41.223Z,48.80
2018-09-13T12:55:53.593Z,48.70
2018-09-13T12:57:55.764Z,49.20
2018-09-13T12:59:57.901Z,48.60
2018-09-13T13:02:00.107Z,48.90
2018-09-13T13:04:02.274Z,47.70
2018-09-13T13:06:04.494Z,48.10
2018-09-13T13:08:06.644Z,47.90
2018-09-13T13:10:08.863Z,46.20
2018-09-13T13:12:11.022Z,45.80
2018-09-13T13:14:13.158Z,45.40
2018-09-13T13:16:15.296Z,45.20
2018-09-13T13:18:17.418Z,45.50
2018-09-13T13:20:19.881Z,46.60
2018-09-13T13:22:22.006Z,46.10
2018-09-13T13:24:24.138Z,45.60
2018-09-13T13:26:26.310Z,47.00
2018-09-13T13:28:28.474Z,50.30
2018-09-13T13:30:30.616Z,50.40
2018-09-13T13:32:32.749Z,49.10
2018-09-13T13:34:34.958Z,48.20
2018-09-13T13:36:37.126Z,48.90
2018-09-13T13:38:40.382Z,51.10
2018-09-13T13:40:42.542Z,52.30
2018-09-13T13:42:44.682Z,52.90
2018-09-13T13:44:46.995Z,51.50
2018-09-13T13:46:49.246Z,52.60
2018-09-13T13:48:51.380Z,53.80
2018-09-13T13:50:53.973Z,54.90
2018-09-13T13:52:56.123Z,55.50
2018-09-13T13:55:04.953Z,55.80
2018-09-13T13:57:07.275Z,55.20
2018-09-13T13:59:09.422Z,55.70
2018-09-13T14:01:11.581Z,55.70
2018-09-13T14:03:13.799Z,56.20
2018-09-13T14:05:15.922Z,53.40
2018-09-13T14:07:18.271Z,53.10
2018-09-13T14:09:20.417Z,53.50
2018-09-13T14:11:22.540Z,54.80
2018-09-13T14:13:24.725Z,55.50
2018-09-13T14:15:26.884Z,55.50
2018-09-13T14:17:29.020Z,56.30
2018-09-13T14:19:31.166Z,56.70
2018-09-13T14:21:33.338Z,57.40
2018-09-13T14:23:35.511Z,57.80
2018-09-13T14:25:37.679Z,56.40
2018-09-13T14:27:39.989Z,55.10
2018-09-13T14:29:42.659Z,51.20
2018-09-13T14:31:44.827Z,50.00
2018-09-13T14:33:46.962Z,49.70
2018-09-13T14:35:49.220Z,49.20
2018-09-13T14:37:51.438Z,49.40
2018-09-13T14:39:53.599Z,50.70
2018-09-13T14:41:56.023Z,49.40
2018-09-13T14:43:58.155Z,50.00
2018-09-13T14:46:00.290Z,50.70
2018-09-13T14:48:02.426Z,51.70
2018-09-13T14:50:04.602Z,51.50
2018-09-13T14:52:06.842Z,52.30
2018-09-13T14:54:08.998Z,52.70
2018-09-13T14:56:11.180Z,51.40
2018-09-13T14:58:13.312Z,49.80
2018-09-13T15:00:15.520Z,48.70
2018-09-13T15:02:17.649Z,48.50
2018-09-13T15:04:19.782Z,51.20
2018-09-13T15:06:21.955Z,49.90
2018-09-13T15:08:24.083Z,49.20
2018-09-13T15:10:26.231Z,47.70
2018-09-13T15:12:28.439Z,47.40
2018-09-13T15:14:30.624Z,45.40
2018-09-13T15:16:32.775Z,45.90
2018-09-13T15:18:34.941Z,45.80
2018-09-13T15:20:37.110Z,48.00
2018-09-13T15:22:40.010Z,50.40
2018-09-13T15:24:42.220Z,51.10
2018-09-13T15:26:44.269Z,49.30
2018-09-13T15:28:46.458Z,48.20
2018-09-13T15:30:48.550Z,47.40
2018-09-13T15:32:50.690Z,47.50
2018-09-13T15:34:53.101Z,47.10
2018-09-13T15:36:55.239Z,47.20
2018-09-13T15:38:57.363Z,48.50
2018-09-13T15:40:59.511Z,48.70
2018-09-13T15:43:01.771Z,50.50
2018-09-13T15:45:03.954Z,51.30
2018-09-13T15:47:06.154Z,52.40
2018-09-13T15:49:08.427Z,53.30
2018-09-13T15:51:10.632Z,54.80
2018-09-13T15:53:12.809Z,55.40
2018-09-13T15:55:14.947Z,56.80
2018-09-13T15:57:17.045Z,58.00
2018-09-13T15:59:19.271Z,58.50
2018-09-13T16:01:21.390Z,58.30
2018-09-13T16:03:23.502Z,58.60
2018-09-13T16:05:25.656Z,59.00
2018-09-13T16:07:27.779Z,59.30
2018-09-13T16:09:29.887Z,59.90
2018-09-13T16:11:32.034Z,61.20
2018-09-13T16:13:34.202Z,62.50
2018-09-13T16:15:36.549Z,63.10
2018-09-13T16:17:39.482Z,63.40
2018-09-13T16:19:41.614Z,63.60
2018-09-13T16:21:43.806Z,64.20
2018-09-13T16:23:45.914Z,64.60
2018-09-13T16:25:48.015Z,65.00
2018-09-13T16:27:50.130Z,65.40
2018-09-13T16:29:52.222Z,65.70
2018-09-13T16:31:54.379Z,66.00
2018-09-13T16:33:56.864Z,66.40
2018-09-13T16:35:59.458Z,66.70
2018-09-13T16:38:07.362Z,66.90
2018-09-13T16:40:15.618Z,67.30
2018-09-13T16:42:23.477Z,67.90
2018-09-13T16:44:31.474Z,68.50
2018-09-13T16:46:39.332Z,69.00
2018-09-13T16:48:42.010Z,69.30
2018-09-13T16:50:44.132Z,69.90
2018-09-13T16:52:46.454Z,70.00
2018-09-13T16:54:48.598Z,70.50
2018-09-13T16:56:50.736Z,71.40
2018-09-13T16:58:53.109Z,71.60
2018-09-13T17:00:55.226Z,71.90
2018-09-13T17:02:57.373Z,72.70
2018-09-13T17:04:59.486Z,72.70
2018-09-13T17:07:01.705Z,73.00
2018-09-13T17:09:07.268Z,73.20
2018-09-13T17:11:09.406Z,73.60
2018-09-13T17:13:11.551Z,73.90
2018-09-13T17:15:13.714Z,74.20
2018-09-13T17:17:15.847Z,74.10
2018-09-13T17:19:18.102Z,74.30
2018-09-13T17:21:20.221Z,74.60
2018-09-13T17:23:22.407Z,75.50
2018-09-13T17:25:24.607Z,76.00
2018-09-13T17:27:26.742Z,75.70
2018-09-13T17:29:29.160Z,75.80
2018-09-13T17:31:31.274Z,76.30
2018-09-13T17:33:33.401Z,76.50
2018-09-13T17:35:35.488Z,76.80
2018-09-13T17:37:37.592Z,77.20
2018-09-13T17:39:39.758Z,77.40
2018-09-13T17:41:42.529Z,77.80
2018-09-13T17:43:44.626Z,78.40
2018-09-13T17:45:46.734Z,78.80
2018-09-13T17:47:48.982Z,78.70
2018-09-13T17:49:51.134Z,79.40
2018-09-13T17:51:53.566Z,80.30
2018-09-13T17:53:55.955Z,80.10
2018-09-13T17:55:58.070Z,79.70
2018-09-13T17:58:01.368Z,79.90
2018-09-13T18:00:03.750Z,80.30
2018-09-13T18:02:05.902Z,80.20
2018-09-13T18:04:08.070Z,80.20
2018-09-13T18:06:10.317Z,80.20
2018-09-13T18:08:12.431Z,80.70
2018-09-13T18:10:14.537Z,81.00
2018-09-13T18:12:16.675Z,81.20
2018-09-13T18:14:18.778Z,81.50
2018-09-13T18:16:20.892Z,81.50
2018-09-13T18:18:23.131Z,81.70
2018-09-13T18:20:25.258Z,81.70
2018-09-13T18:22:27.354Z,82.10
2018-09-13T18:24:30.457Z,82.30
2018-09-13T18:26:33.109Z,82.50
2018-09-13T18:28:35.246Z,82.70
2018-09-13T18:30:37.630Z,82.50
2018-09-13T18:32:39.794Z,82.60
2018-09-13T18:34:41.913Z,83.50
2018-09-13T18:36:44.038Z,84.00
2018-09-13T18:38:46.198Z,84.00
2018-09-13T18:40:48.298Z,84.30
2018-09-13T18:42:50.734Z,84.40
2018-09-13T18:44:52.846Z,84.30
2018-09-13T18:46:55.050Z,84.10
2018-09-13T18:48:57.519Z,84.00
2018-09-13T18:50:59.629Z,84.20
2018-09-13T18:53:01.830Z,84.40
2018-09-13T18:55:04.053Z,84.20
2018-09-13T18:57:06.177Z,83.90
2018-09-13T18:59:08.310Z,84.00
2018-09-13T19:01:10.698Z,84.00
2018-09-13T19:03:12.809Z,84.30
2018-09-13T19:05:15.192Z,84.40
2018-09-13T19:07:17.270Z,84.70
2018-09-13T19:09:19.397Z,84.90
2018-09-13T19:11:21.559Z,85.30
2018-09-13T19:13:23.674Z,85.50
2018-09-13T19:15:25.782Z,85.40
2018-09-13T19:17:27.949Z,85.40
2018-09-13T19:19:30.245Z,85.50
2018-09-13T19:21:32.392Z,85.40
2018-09-13T19:23:34.505Z,85.60
2018-09-13T19:25:36.679Z,85.70
2018-09-13T19:27:38.838Z,85.70
2018-09-13T19:29:40.994Z,85.70
2018-09-13T19:31:43.145Z,85.90
2018-09-13T19:33:45.762Z,85.60
2018-09-13T19:35:47.875Z,85.90
2018-09-13T19:37:50.014Z,85.90
2018-09-13T19:39:52.113Z,86.20
2018-09-13T19:41:54.434Z,86.10
2018-09-13T19:43:56.565Z,85.90
2018-09-13T19:45:58.706Z,86.20
2018-09-13T19:48:01.183Z,86.30
2018-09-13T19:50:03.420Z,86.60
2018-09-13T19:52:05.577Z,86.60
2018-09-13T19:54:07.731Z,86.60
2018-09-13T19:56:09.901Z,86.80
2018-09-13T19:58:12.063Z,86.80
2018-09-13T20:00:14.215Z,86.80
2018-09-13T20:02:16.356Z,86.90
2018-09-13T20:04:18.457Z,86.80
2018-09-13T20:06:20.833Z,86.90
2018-09-13T20:08:22.951Z,86.80
2018-09-13T20:10:25.178Z,86.90
2018-09-13T20:12:27.647Z,86.90
2018-09-13T20:14:29.806Z,87.10
2018-09-13T20:16:32.143Z,87.10
2018-09-13T20:18:34.304Z,87.00
2018-09-13T20:20:36.422Z,87.20
2018-09-13T20:22:38.633Z,87.20
2018-09-13T20:24:40.925Z,87.10
2018-09-13T20:26:43.162Z,87.30
2018-09-13T20:28:45.344Z,87.10
2018-09-13T20:30:47.433Z,87.10
2018-09-13T20:32:49.994Z,87.20
2018-09-13T20:34:52.341Z,87.10
2018-09-13T20:36:54.542Z,87.30
2018-09-13T20:38:56.984Z,87.30
2018-09-13T20:40:59.019Z,87.30
2018-09-13T20:43:01.157Z,87.30
2018-09-13T20:45:03.602Z,87.40
2018-09-13T20:47:05.718Z,87.50
2018-09-13T20:49:07.825Z,87.60
2018-09-13T20:51:10.325Z,87.50
2018-09-13T20:53:12.535Z,87.50
2018-09-13T20:55:14.669Z,87.60
2018-09-13T20:57:17.020Z,87.50
2018-09-13T20:59:19.074Z,87.60
2018-09-13T21:01:21.209Z,87.60
2018-09-13T21:03:23.415Z,87.60
2018-09-13T21:05:25.578Z,87.70
2018-09-13T21:07:27.709Z,87.70
2018-09-13T21:09:29.846Z,87.60
2018-09-13T21:11:32.332Z,87.80
2018-09-13T21:13:34.538Z,87.70
2018-09-13T21:15:36.702Z,87.60
2018-09-13T21:17:38.885Z,87.50
2018-09-13T21:19:41.035Z,87.40
2018-09-13T21:21:43.153Z,87.50
2018-09-13T21:23:45.486Z,87.40
2018-09-13T21:25:47.609Z,88.40
2018-09-13T21:27:49.729Z,89.40
2018-09-13T21:29:52.042Z,89.70
2018-09-13T21:31:54.301Z,90.10
2018-09-13T21:33:56.471Z,90.40
2018-09-13T21:35:58.652Z,91.10
2018-09-13T21:38:00.782Z,91.40
2018-09-13T21:40:02.922Z,92.40
2018-09-13T21:42:05.317Z,92.30
2018-09-13T21:44:07.450Z,91.60
2018-09-13T21:46:09.570Z,91.20
2018-09-13T21:48:11.696Z,90.90
2018-09-13T21:50:13.868Z,91.00
2018-09-13T21:52:15.978Z,91.50
2018-09-13T21:54:18.098Z,92.30
2018-09-13T21:56:20.251Z,91.90
2018-09-13T21:58:22.412Z,91.10
2018-09-13T22:00:24.554Z,90.60
2018-09-13T22:02:26.971Z,90.70
2018-09-13T22:04:29.112Z,91.10
2018-09-13T22:06:31.285Z,91.30
2018-09-13T22:08:33.454Z,92.20
2018-09-13T22:10:35.603Z,93.00
2018-09-13T22:12:37.770Z,93.10
2018-09-13T22:14:40.136Z,93.10
2018-09-13T22:16:42.366Z,93.10
2018-09-13T22:18:44.687Z,93.10
2018-09-13T22:20:46.886Z,93.00
2018-09-13T22:22:49.109Z,93.20
2018-09-13T22:24:51.267Z,93.40
2018-09-13T22:26:53.447Z,93.40
2018-09-13T22:28:55.677Z,93.70
2018-09-13T22:30:57.817Z,94.00
2018-09-13T22:33:00.046Z,93.50
2018-09-13T22:35:02.194Z,93.70
2018-09-13T22:37:04.402Z,93.80
2018-09-13T22:39:08.339Z,93.90
2018-09-13T22:41:10.503Z,94.40
2018-09-13T22:43:12.649Z,94.80
2018-09-13T22:45:14.762Z,94.80
2018-09-13T22:47:16.926Z,94.80
2018-09-13T22:49:19.107Z,94.90
2018-09-13T22:51:21.297Z,95.10
2018-09-13T22:53:23.504Z,95.10
2018-09-13T22:55:25.758Z,95.10
2018-09-13T22:57:27.903Z,94.80
2018-09-13T22:59:30.338Z,94.30
2018-09-13T23:01:32.534Z,94.10
2018-09-13T23:03:34.696Z,94.20
2018-09-13T23:05:36.862Z,94.40
2018-09-13T23:07:39.023Z,94.70
2018-09-13T23:09:41.178Z,94.80
2018-09-13T23:11:43.299Z,94.30
2018-09-13T23:13:45.439Z,94.70
2018-09-13T23:15:48.112Z,94.70
2018-09-13T23:17:50.244Z,94.80
2018-09-13T23:19:52.386Z,94.70
2018-09-13T23:21:54.555Z,95.00
2018-09-13T23:23:56.868Z,95.60
2018-09-13T23:25:59.037Z,95.80
2018-09-13T23:28:01.190Z,95.80
2018-09-13T23:30:03.623Z,96.00
2018-09-13T23:32:05.882Z,96.40
2018-09-13T23:34:08.092Z,96.30
2018-09-13T23:36:10.278Z,96.40
2018-09-13T23:38:12.498Z,96.40
2018-09-13T23:40:14.775Z,96.10
2018-09-13T23:42:16.837Z,96.30
2018-09-13T23:44:18.997Z,96.40
2018-09-13T23:46:21.158Z,96.60
2018-09-13T23:48:23.335Z,96.40
2018-09-13T23:50:25.499Z,95.70
2018-09-13T23:52:27.620Z,96.50
2018-09-13T23:54:29.926Z,97.00
2018-09-13T23:56:32.089Z,97.40
2018-09-13T23:58:34.268Z,97.80
